Time;durP1;ratioP1;P1;durP2;ratioP2;P2;SDS_P1;SDS_P2;PMS_P1;PMS_P2;Temp;Humidity;BMP_temperature;BMP_pressure;BME280_temperature;BME280_humidity;BME280_pressure;Samples;Min_cycle;Max_cycle;Signal;HPM_P1;HPM_P2
2023/07/30 00:01:26;;;;;;;0.95;0.80;;;;;;;;;;6198191;28;20346;-57
2023/07/30 00:04:26;;;;;;;1.53;1.00;;;;;;;;;;6187929;28;20026;-60
2023/07/30 00:07:26;;;;;;;0.90;0.90;;;;;;;;;;6193629;28;20054;-59
2023/07/30 00:10:27;;;;;;;1.13;1.00;;;;;;;;;;6190440;28;20028;-58
2023/07/30 00:13:27;;;;;;;1.23;1.13;;;;;;;;;;6198407;28;20025;-61
2023/07/30 00:16:27;;;;;;;1.27;1.00;;;;;;;;;;6195154;28;20273;-58
2023/07/30 00:19:27;;;;;;;1.43;1.00;;;;;;;;;;6188548;28;20296;-56
2023/07/30 00:22:28;;;;;;;1.80;0.90;;;;;;;;;;6191102;28;20927;-59
2023/07/30 00:25:28;;;;;;;1.83;1.10;;;;;;;;;;6199757;28;20276;-57
2023/07/30 00:28:28;;;;;;;1.70;1.10;;;;;;;;;;6194874;28;20074;-55
2023/07/30 00:31:28;;;;;;;1.10;1.00;;;;;;;;;;6195132;28;20021;-57
2023/07/30 00:34:28;;;;;;;3.70;1.13;;;;;;;;;;6193943;28;20615;-59
2023/07/30 00:37:29;;;;;;;1.15;1.05;;;;;;;;;;6192491;28;20291;-59
2023/07/30 00:40:29;;;;;;;0.90;0.90;;;;;;;;;;6191085;28;20025;-58
2023/07/30 00:43:29;;;;;;;1.25;1.15;;;;;;;;;;6205835;22;20693;-68
2023/07/30 00:46:30;;;;;;;1.30;1.20;;;;;;;;;;6219554;28;20143;-63
2023/07/30 00:49:30;;;;;;;0.93;0.90;;;;;;;;;;6234038;28;20359;-64
2023/07/30 00:52:31;;;;;;;1.20;0.90;;;;;;;;;;6244733;28;20033;-64
2023/07/30 00:55:31;;;;;;;1.17;1.05;;;;;;;;;;6212426;28;20029;-63
2023/07/30 00:58:32;;;;;;;1.40;1.02;;;;;;;;;;6226623;28;20025;-64
2023/07/30 01:01:34;;;;;;;1.25;0.90;;;;;;;;;;6225563;28;20049;-64
2023/07/30 01:04:37;;;;;;;2.28;1.20;;;;;;;;;;6223428;28;20099;-63
2023/07/30 01:07:37;;;;;;;1.20;1.10;;;;;;;;;;6216248;28;20017;-60
2023/07/30 01:10:38;;;;;;;1.43;1.20;;;;;;;;;;6232459;28;20085;-62
2023/07/30 01:13:38;;;;;;;1.10;1.00;;;;;;;;;;6229150;28;20368;-63
2023/07/30 01:16:39;;;;;;;1.10;1.00;;;;;;;;;;6234395;28;20037;-63
2023/07/30 01:19:39;;;;;;;1.10;1.00;;;;;;;;;;6229588;28;20022;-66
2023/07/30 01:22:39;;;;;;;1.40;1.30;;;;;;;;;;6236822;28;20170;-67
2023/07/30 01:25:40;;;;;;;1.50;1.40;;;;;;;;;;6207172;28;20789;-63
2023/07/30 01:28:43;;;;;;;1.13;1.02;;;;;;;;;;6235774;28;20356;-61
2023/07/30 01:31:45;;;;;;;1.42;1.15;;;;;;;;;;6236226;28;20017;-58
2023/07/30 01:34:46;;;;;;;1.20;1.10;;;;;;;;;;6236182;28;20022;-65
2023/07/30 01:40:56;;;;;;;;;;;;;;;;;;6407443;22;10001540;-56
2023/07/30 01:43:57;;;;;;;0.90;0.77;;;;;;;;;;6197601;28;20000;-56
2023/07/30 01:46:57;;;;;;;1.00;0.90;;;;;;;;;;6182067;28;20088;-60
2023/07/30 01:49:57;;;;;;;1.07;1.00;;;;;;;;;;6204032;28;20026;-64
2023/07/30 01:52:58;;;;;;;1.03;1.00;;;;;;;;;;6203781;28;20548;-63
2023/07/30 01:55:58;;;;;;;1.30;1.00;;;;;;;;;;6186603;28;20308;-62
2023/07/30 01:58:58;;;;;;;1.07;0.90;;;;;;;;;;6205787;28;20382;-61
2023/07/30 02:01:58;;;;;;;1.67;1.10;;;;;;;;;;6207658;28;20642;-60
2023/07/30 02:04:58;;;;;;;1.30;1.10;;;;;;;;;;6204504;28;20377;-61
2023/07/30 02:07:59;;;;;;;1.20;0.90;;;;;;;;;;6203836;28;20977;-61
2023/07/30 02:10:59;;;;;;;1.20;1.00;;;;;;;;;;6201436;28;20370;-61
2023/07/30 02:13:59;;;;;;;1.08;0.90;;;;;;;;;;6210453;28;20101;-60
2023/07/30 02:17:00;;;;;;;0.93;0.90;;;;;;;;;;6212937;28;20038;-65
2023/07/30 02:20:00;;;;;;;0.97;0.90;;;;;;;;;;6225922;28;20276;-66
2023/07/30 02:23:00;;;;;;;1.40;1.10;;;;;;;;;;6215003;28;20325;-66
2023/07/30 02:26:00;;;;;;;1.43;0.90;;;;;;;;;;6212917;28;20276;-67
2023/07/30 02:29:01;;;;;;;0.90;0.90;;;;;;;;;;6198260;28;20268;-67
2023/07/30 02:32:01;;;;;;;1.02;0.93;;;;;;;;;;6198616;28;20120;-65
2023/07/30 02:35:01;;;;;;;1.30;1.00;;;;;;;;;;6203811;28;20038;-66
2023/07/30 02:38:01;;;;;;;0.90;0.90;;;;;;;;;;6204176;28;20767;-66
2023/07/30 02:41:02;;;;;;;1.27;1.17;;;;;;;;;;6204224;28;20021;-65
2023/07/30 02:44:02;;;;;;;1.10;1.00;;;;;;;;;;6210165;28;20297;-66
2023/07/30 02:47:02;;;;;;;1.20;1.10;;;;;;;;;;6208115;28;20422;-66
2023/07/30 02:50:04;;;;;;;1.27;1.10;;;;;;;;;;6202479;28;20501;-66
2023/07/30 02:53:04;;;;;;;1.08;0.98;;;;;;;;;;6200827;28;20041;-65
2023/07/30 02:56:04;;;;;;;2.53;1.03;;;;;;;;;;6203994;28;20125;-66
2023/07/30 02:59:04;;;;;;;1.10;1.00;;;;;;;;;;6204968;28;20411;-65
2023/07/30 03:02:05;;;;;;;0.93;0.83;;;;;;;;;;6201508;28;20654;-65
2023/07/30 03:05:05;;;;;;;1.25;0.88;;;;;;;;;;6200110;28;20022;-66
2023/07/30 03:08:05;;;;;;;0.98;0.90;;;;;;;;;;6201265;28;20497;-66
2023/07/30 03:11:06;;;;;;;1.43;0.90;;;;;;;;;;6201340;28;20022;-66
2023/07/30 03:14:06;;;;;;;1.30;1.05;;;;;;;;;;6205966;28;20029;-66
2023/07/30 03:17:06;;;;;;;1.25;0.90;;;;;;;;;;6203274;28;20459;-66
2023/07/30 03:20:07;;;;;;;0.98;0.90;;;;;;;;;;6185731;28;20026;-67
2023/07/30 03:23:07;;;;;;;0.88;0.73;;;;;;;;;;6201979;28;20041;-66
2023/07/30 03:26:07;;;;;;;1.67;1.00;;;;;;;;;;6207621;28;20049;-66
2023/07/30 03:29:08;;;;;;;1.13;1.03;;;;;;;;;;6209004;28;20707;-66
2023/07/30 03:32:08;;;;;;;1.30;1.10;;;;;;;;;;6184237;28;20628;-66
2023/07/30 03:35:08;;;;;;;1.53;1.10;;;;;;;;;;6199756;28;20629;-66
2023/07/30 03:38:08;;;;;;;0.93;0.90;;;;;;;;;;6202372;28;20466;-67
2023/07/30 03:41:10;;;;;;;1.00;0.90;;;;;;;;;;6203251;28;20056;-66
2023/07/30 03:44:10;;;;;;;1.00;0.90;;;;;;;;;;6188962;28;20392;-68
2023/07/30 03:47:11;;;;;;;2.03;1.10;;;;;;;;;;6208110;28;20101;-66
2023/07/30 03:50:11;;;;;;;1.17;1.07;;;;;;;;;;6200715;28;20618;-66
2023/07/30 03:53:11;;;;;;;1.00;0.90;;;;;;;;;;6206346;28;20275;-67
2023/07/30 03:56:11;;;;;;;0.88;0.88;;;;;;;;;;6198187;28;20339;-66
2023/07/30 03:59:12;;;;;;;1.13;0.95;;;;;;;;;;6206805;28;20506;-66
2023/07/30 04:02:15;;;;;;;2.00;1.00;;;;;;;;;;6198747;28;20049;-65
2023/07/30 04:05:15;;;;;;;1.23;1.13;;;;;;;;;;6198874;28;20133;-67
2023/07/30 04:08:16;;;;;;;0.90;0.90;;;;;;;;;;6205141;28;20583;-66
2023/07/30 04:11:16;;;;;;;0.82;0.82;;;;;;;;;;6202574;28;20587;-67
2023/07/30 04:14:16;;;;;;;1.50;1.13;;;;;;;;;;6205083;28;20026;-66
2023/07/30 04:17:16;;;;;;;1.03;0.93;;;;;;;;;;6205421;28;20319;-66
2023/07/30 04:20:17;;;;;;;1.10;1.00;;;;;;;;;;6198336;28;20528;-66
2023/07/30 04:23:18;;;;;;;1.75;1.08;;;;;;;;;;6187420;28;20025;-66
2023/07/30 04:26:18;;;;;;;2.90;1.40;;;;;;;;;;6201167;28;20506;-67
2023/07/30 04:29:18;;;;;;;1.00;0.80;;;;;;;;;;6203095;28;20269;-66
2023/07/30 04:32:18;;;;;;;1.40;0.90;;;;;;;;;;6199634;28;20096;-65
2023/07/30 04:35:18;;;;;;;0.90;0.90;;;;;;;;;;6198373;28;20704;-66
2023/07/30 04:38:19;;;;;;;2.55;2.25;;;;;;;;;;6206280;28;20804;-65
2023/07/30 04:41:20;;;;;;;3.65;3.03;;;;;;;;;;6196626;28;20041;-65
2023/07/30 04:44:20;;;;;;;2.80;2.50;;;;;;;;;;6207339;28;20026;-65
2023/07/30 04:47:21;;;;;;;2.67;1.40;;;;;;;;;;6213547;28;20032;-65
2023/07/30 04:50:21;;;;;;;2.40;2.20;;;;;;;;;;6208052;28;20252;-65
2023/07/30 04:53:21;;;;;;;4.67;3.67;;;;;;;;;;6205868;28;20386;-64
2023/07/30 04:56:21;;;;;;;2.53;2.33;;;;;;;;;;6203075;28;20783;-64
2023/07/30 04:59:21;;;;;;;2.80;1.57;;;;;;;;;;6202829;28;20022;-65
2023/07/30 05:02:22;;;;;;;1.83;1.50;;;;;;;;;;6200959;28;20397;-65
2023/07/30 05:05:22;;;;;;;2.07;1.37;;;;;;;;;;6203202;28;20299;-65
2023/07/30 05:08:22;;;;;;;2.73;1.20;;;;;;;;;;6204839;28;20315;-64
2023/07/30 05:11:23;;;;;;;2.00;1.73;;;;;;;;;;6197669;28;20355;-66
2023/07/30 05:14:23;;;;;;;3.58;2.72;;;;;;;;;;6205461;28;20025;-66
2023/07/30 05:17:23;;;;;;;3.13;2.58;;;;;;;;;;6197787;28;20589;-65
2023/07/30 05:20:24;;;;;;;2.53;1.93;;;;;;;;;;6210809;28;20390;-65
2023/07/30 05:23:24;;;;;;;1.88;1.70;;;;;;;;;;6214423;28;20107;-65
2023/07/30 05:26:24;;;;;;;2.60;1.67;;;;;;;;;;6224691;28;20028;-65
2023/07/30 05:29:24;;;;;;;1.50;1.40;;;;;;;;;;6219087;28;20627;-64
2023/07/30 05:32:25;;;;;;;1.63;1.07;;;;;;;;;;6203238;28;21310;-64
2023/07/30 05:35:25;;;;;;;1.15;1.10;;;;;;;;;;6209883;28;20029;-62
2023/07/30 05:38:26;;;;;;;1.87;1.63;;;;;;;;;;6206388;28;20034;-64
2023/07/30 05:41:26;;;;;;;2.83;1.53;;;;;;;;;;6204783;28;20726;-62
2023/07/30 05:44:26;;;;;;;1.87;1.73;;;;;;;;;;6205000;28;20296;-65
2023/07/30 05:47:26;;;;;;;1.67;1.40;;;;;;;;;;6204103;28;20025;-65
2023/07/30 05:50:26;;;;;;;1.53;1.30;;;;;;;;;;6212876;28;20301;-65
2023/07/30 05:53:27;;;;;;;1.60;1.20;;;;;;;;;;6206479;28;20295;-66
2023/07/30 05:56:27;;;;;;;1.13;1.03;;;;;;;;;;6206050;28;20401;-64
2023/07/30 05:59:27;;;;;;;1.40;1.17;;;;;;;;;;6206752;28;20041;-64
2023/07/30 06:02:27;;;;;;;1.73;1.40;;;;;;;;;;6209124;28;20677;-63
2023/07/30 06:05:28;;;;;;;1.47;1.37;;;;;;;;;;6201077;28;20018;-62
2023/07/30 06:08:29;;;;;;;2.93;1.63;;;;;;;;;;6206362;28;20724;-62
2023/07/30 06:11:29;;;;;;;1.45;1.35;;;;;;;;;;6209852;28;21360;-62
2023/07/30 06:14:30;;;;;;;1.90;1.40;;;;;;;;;;6205907;28;20133;-62
2023/07/30 06:17:30;;;;;;;1.63;1.33;;;;;;;;;;6204772;28;20530;-62
2023/07/30 06:20:30;;;;;;;2.77;1.10;;;;;;;;;;6207374;28;20277;-63
2023/07/30 06:23:30;;;;;;;2.25;1.23;;;;;;;;;;6204399;28;20053;-63
2023/07/30 06:26:31;;;;;;;1.43;1.33;;;;;;;;;;6198873;28;20018;-66
2023/07/30 06:29:31;;;;;;;1.20;1.10;;;;;;;;;;6204267;28;20046;-64
2023/07/30 06:32:31;;;;;;;1.43;1.20;;;;;;;;;;6206665;28;21558;-65
2023/07/30 06:35:31;;;;;;;1.33;1.20;;;;;;;;;;6197502;28;21822;-63
2023/07/30 06:38:32;;;;;;;1.33;1.23;;;;;;;;;;6204932;28;20018;-62
2023/07/30 06:41:32;;;;;;;2.07;1.57;;;;;;;;;;6203748;28;20334;-62
2023/07/30 06:44:32;;;;;;;1.40;1.30;;;;;;;;;;6204560;28;20295;-63
2023/07/30 06:47:32;;;;;;;1.73;1.63;;;;;;;;;;6201155;28;20392;-63
2023/07/30 06:50:33;;;;;;;1.75;1.65;;;;;;;;;;6205918;28;20014;-62
2023/07/30 06:53:33;;;;;;;1.43;1.30;;;;;;;;;;6199523;28;20030;-63
2023/07/30 06:56:33;;;;;;;2.72;1.20;;;;;;;;;;6200220;28;21271;-64
2023/07/30 06:59:34;;;;;;;1.10;0.93;;;;;;;;;;6204347;28;20108;-64
2023/07/30 07:02:34;;;;;;;1.05;0.95;;;;;;;;;;6198212;28;20687;-63
2023/07/30 07:05:34;;;;;;;0.70;0.70;;;;;;;;;;6199820;28;20021;-62
2023/07/30 07:08:34;;;;;;;1.33;0.93;;;;;;;;;;6203485;28;20033;-62
2023/07/30 07:11:34;;;;;;;1.00;0.90;;;;;;;;;;6189606;28;20273;-61
2023/07/30 07:14:35;;;;;;;2.30;0.90;;;;;;;;;;6186026;28;20046;-67
2023/07/30 07:17:35;;;;;;;0.80;0.80;;;;;;;;;;6182610;28;20045;-68
2023/07/30 07:20:36;;;;;;;1.30;0.70;;;;;;;;;;6201702;28;20272;-68
2023/07/30 07:23:36;;;;;;;;;;;;;;;;;;6209292;28;20280;-68
2023/07/30 07:26:36;;;;;;;1.60;1.30;;;;;;;;;;6184108;28;19951;-69
2023/07/30 07:29:36;;;;;;;;;;;;;;;;;;6200604;28;20014;-67
2023/07/30 07:32:38;;;;;;;1.25;1.10;;;;;;;;;;6204699;28;19936;-68
2023/07/30 07:35:39;;;;;;;1.17;0.88;;;;;;;;;;6204036;28;20018;-68
2023/07/30 07:38:39;;;;;;;;;;;;;;;;;;6201089;28;20440;-69
2023/07/30 07:41:39;;;;;;;2.75;1.80;;;;;;;;;;6208323;28;19975;-69
2023/07/30 07:44:39;;;;;;;;;;;;;;;;;;6207913;28;20062;-68
2023/07/30 07:47:40;;;;;;;1.40;1.20;;;;;;;;;;6200572;28;19920;-68
2023/07/30 07:50:40;;;;;;;;;;;;;;;;;;6204697;28;20728;-68
2023/07/30 07:53:40;;;;;;;1.33;1.08;;;;;;;;;;6200162;28;19917;-67
2023/07/30 07:56:40;;;;;;;;;;;;;;;;;;6206238;28;20045;-67
2023/07/30 07:59:44;;;;;;;0.70;0.70;;;;;;;;;;6197127;28;20010;-67
2023/07/30 08:02:45;;;;;;;0.80;0.80;;;;;;;;;;6200666;28;20115;-68
2023/07/30 08:05:45;;;;;;;1.30;1.20;;;;;;;;;;6196570;28;20034;-64
2023/07/30 08:08:45;;;;;;;2.97;2.67;;;;;;;;;;6169169;28;20412;-64
2023/07/30 08:11:45;;;;;;;2.38;1.90;;;;;;;;;;6173100;28;20334;-65
2023/07/30 08:14:46;;;;;;;1.57;1.47;;;;;;;;;;6174572;28;20028;-65
2023/07/30 08:17:46;;;;;;;1.40;1.10;;;;;;;;;;6176112;28;20091;-66
2023/07/30 08:20:47;;;;;;;1.27;1.00;;;;;;;;;;6175653;28;20947;-58
2023/07/30 08:23:47;;;;;;;1.10;1.00;;;;;;;;;;6178673;28;20414;-66
2023/07/30 08:26:47;;;;;;;1.17;1.10;;;;;;;;;;6179077;28;20034;-63
2023/07/30 08:29:47;;;;;;;1.60;1.50;;;;;;;;;;6174389;28;20509;-59
2023/07/30 08:32:48;;;;;;;2.23;2.03;;;;;;;;;;6175490;28;20204;-60
2023/07/30 08:35:48;;;;;;;2.97;2.23;;;;;;;;;;6179609;28;20025;-65
2023/07/30 08:38:48;;;;;;;1.93;1.73;;;;;;;;;;6177023;28;20030;-59
2023/07/30 08:41:48;;;;;;;1.50;1.40;;;;;;;;;;6169960;28;20338;-60
2023/07/30 08:44:48;;;;;;;2.35;1.25;;;;;;;;;;6172357;28;20665;-59
2023/07/30 08:47:49;;;;;;;1.10;1.00;;;;;;;;;;6167637;28;20108;-65
2023/07/30 08:50:49;;;;;;;1.33;1.05;;;;;;;;;;6183293;28;20122;-58
2023/07/30 08:53:51;;;;;;;2.05;1.58;;;;;;;;;;6186697;28;20025;-55
2023/07/30 08:56:51;;;;;;;1.20;1.10;;;;;;;;;;6202351;28;20113;-56
2023/07/30 09:00:03;;;;;;;1.20;1.10;;;;;;;;;;6200372;28;20497;-55
2023/07/30 09:03:03;;;;;;;1.20;1.10;;;;;;;;;;6200145;28;20562;-54
2023/07/30 09:06:04;;;;;;;1.30;1.20;;;;;;;;;;6210503;28;20024;-60
2023/07/30 09:09:04;;;;;;;1.10;0.83;;;;;;;;;;6203246;28;20026;-58
2023/07/30 09:12:12;;;;;;;0.80;0.80;;;;;;;;;;6195338;28;20273;-58
2023/07/30 09:15:12;;;;;;;0.88;0.85;;;;;;;;;;6153832;28;20037;-57
2023/07/30 09:18:16;;;;;;;0.80;0.80;;;;;;;;;;6178127;28;20306;-57
2023/07/30 09:21:16;;;;;;;0.75;0.75;;;;;;;;;;6160427;28;20084;-59
2023/07/30 09:24:21;;;;;;;0.80;0.80;;;;;;;;;;6173401;28;20203;-54
2023/07/30 09:27:27;;;;;;;1.50;0.90;;;;;;;;;;6170352;28;20288;-58
2023/07/30 09:30:28;;;;;;;1.88;1.30;;;;;;;;;;6164635;28;20030;-55
2023/07/30 09:33:28;;;;;;;1.70;1.55;;;;;;;;;;6175961;28;20038;-59
2023/07/30 09:36:30;;;;;;;1.50;1.40;;;;;;;;;;6167282;28;20026;-59
2023/07/30 09:39:30;;;;;;;1.05;0.95;;;;;;;;;;6175768;28;20125;-60
2023/07/30 09:42:33;;;;;;;1.27;1.17;;;;;;;;;;6180918;28;20446;-60
2023/07/30 09:45:35;;;;;;;1.98;1.00;;;;;;;;;;6162862;28;20277;-63
2023/07/30 09:48:35;;;;;;;0.77;0.77;;;;;;;;;;6178136;28;20030;-61
2023/07/30 09:51:37;;;;;;;2.22;2.03;;;;;;;;;;6175603;28;20537;-60
2023/07/30 09:54:38;;;;;;;1.55;1.40;;;;;;;;;;6172233;28;20231;-59
2023/07/30 09:57:39;;;;;;;1.60;1.50;;;;;;;;;;6184598;28;20056;-60
2023/07/30 10:00:39;;;;;;;1.13;1.05;;;;;;;;;;6184426;28;20586;-59
2023/07/30 10:03:39;;;;;;;1.65;0.90;;;;;;;;;;6180034;28;20030;-60
2023/07/30 10:06:49;;;;;;;0.80;0.80;;;;;;;;;;6177788;28;20037;-68
2023/07/30 10:09:51;;;;;;;0.60;0.60;;;;;;;;;;6178875;28;20056;-62
2023/07/30 10:12:52;;;;;;;0.70;0.70;;;;;;;;;;6180247;28;20042;-60
2023/07/30 10:15:53;;;;;;;1.00;0.90;;;;;;;;;;6182655;28;20378;-59
2023/07/30 10:18:56;;;;;;;0.68;0.68;;;;;;;;;;6186624;28;20114;-59
2023/07/30 10:22:29;;;;;;;1.05;0.95;;;;;;;;;;6188204;28;20026;-61
2023/07/30 10:25:31;;;;;;;2.45;2.25;;;;;;;;;;6151036;28;20034;-61
2023/07/30 10:28:35;;;;;;;2.33;2.13;;;;;;;;;;6185483;28;20034;-60
2023/07/30 10:31:39;;;;;;;1.65;1.30;;;;;;;;;;6193463;28;20018;-61
2023/07/30 10:34:44;;;;;;;0.80;0.80;;;;;;;;;;6206308;28;20065;-61
2023/07/30 10:37:47;;;;;;;0.80;0.80;;;;;;;;;;6210982;28;20022;-60
2023/07/30 10:41:01;;;;;;;1.15;0.80;;;;;;;;;;6207699;28;20169;-61
2023/07/30 10:44:02;;;;;;;0.65;0.63;;;;;;;;;;6217992;28;20120;-61
2023/07/30 10:47:03;;;;;;;1.10;1.00;;;;;;;;;;6194278;28;20028;-60
2023/07/30 10:50:04;;;;;;;0.90;0.80;;;;;;;;;;6209806;28;20296;-63
2023/07/30 10:53:07;;;;;;;0.90;0.90;;;;;;;;;;6189274;28;20026;-59
2023/07/30 10:56:08;;;;;;;1.13;1.05;;;;;;;;;;6200034;28;20040;-58
2023/07/30 10:59:09;;;;;;;1.08;0.80;;;;;;;;;;6206059;28;20082;-58
2023/07/30 11:02:12;;;;;;;3.67;3.22;;;;;;;;;;6209184;28;20030;-57
2023/07/30 11:05:13;;;;;;;2.83;2.60;;;;;;;;;;6202844;28;20446;-60
2023/07/30 11:08:14;;;;;;;1.50;1.33;;;;;;;;;;6202946;28;20014;-57
2023/07/30 11:11:15;;;;;;;1.77;1.25;;;;;;;;;;6204933;28;20064;-57
2023/07/30 11:14:16;;;;;;;2.10;1.00;;;;;;;;;;6202622;28;20437;-53
2023/07/30 11:17:17;;;;;;;1.05;0.85;;;;;;;;;;6196226;28;20022;-59
2023/07/30 11:20:26;;;;;;;1.63;0.90;;;;;;;;;;6199720;28;20032;-59
2023/07/30 11:23:27;;;;;;;0.90;0.90;;;;;;;;;;6206107;28;20240;-60
2023/07/30 11:26:27;;;;;;;0.77;0.60;;;;;;;;;;6205039;28;20274;-63
2023/07/30 11:29:27;;;;;;;0.80;0.80;;;;;;;;;;6200295;28;20082;-63
2023/07/30 11:32:29;;;;;;;0.70;0.70;;;;;;;;;;6202090;28;20033;-63
2023/07/30 11:35:30;;;;;;;0.77;0.73;;;;;;;;;;6201914;28;20026;-59
2023/07/30 11:38:31;;;;;;;0.70;0.70;;;;;;;;;;6205049;28;20665;-60
2023/07/30 11:41:32;;;;;;;0.80;0.80;;;;;;;;;;6203015;28;20026;-58
2023/07/30 11:44:34;;;;;;;0.80;0.80;;;;;;;;;;6197920;28;20705;-63
2023/07/30 11:47:34;;;;;;;1.30;1.20;;;;;;;;;;6211048;28;20451;-69
2023/07/30 11:50:44;;;;;;;1.97;1.77;;;;;;;;;;6211364;28;20044;-62
2023/07/30 11:53:51;;;;;;;1.23;1.13;;;;;;;;;;6203029;28;20036;-55
2023/07/30 11:56:56;;;;;;;0.85;0.85;;;;;;;;;;6200283;28;20074;-58
2023/07/30 11:59:56;;;;;;;0.73;0.73;;;;;;;;;;6196837;28;20032;-64
2023/07/30 12:02:59;;;;;;;0.53;0.53;;;;;;;;;;6202520;28;20536;-67
2023/07/30 12:06:04;;;;;;;0.70;0.70;;;;;;;;;;6198872;28;20375;-66
2023/07/30 12:09:11;;;;;;;0.50;0.50;;;;;;;;;;5857677;28;9999957;-64
2023/07/30 12:12:11;;;;;;;0.73;0.73;;;;;;;;;;6201528;28;20069;-67
2023/07/30 12:15:12;;;;;;;1.17;0.70;;;;;;;;;;6197699;28;20093;-65
2023/07/30 12:18:12;;;;;;;0.63;0.63;;;;;;;;;;6202021;28;20106;-65
2023/07/30 12:21:12;;;;;;;0.80;0.60;;;;;;;;;;6202886;28;20037;-65
2023/07/30 12:24:12;;;;;;;0.50;0.50;;;;;;;;;;6198732;28;20394;-65
2023/07/30 12:27:13;;;;;;;0.80;0.80;;;;;;;;;;6199294;28;20024;-67
2023/07/30 12:30:13;;;;;;;2.63;0.80;;;;;;;;;;5854042;28;10000581;-66
2023/07/30 12:33:13;;;;;;;0.67;0.63;;;;;;;;;;6181026;28;20128;-65
2023/07/30 12:36:14;;;;;;;0.40;0.40;;;;;;;;;;6200283;28;20022;-66
2023/07/30 12:39:14;;;;;;;0.70;0.70;;;;;;;;;;6197818;28;20113;-65
2023/07/30 12:42:15;;;;;;;1.53;1.43;;;;;;;;;;6207071;28;20026;-71
2023/07/30 12:45:15;;;;;;;1.03;0.90;;;;;;;;;;6219294;28;20025;-71
2023/07/30 12:48:15;;;;;;;1.05;0.60;;;;;;;;;;6226777;28;20086;-70
2023/07/30 12:51:15;;;;;;;0.60;0.57;;;;;;;;;;6221127;28;20081;-70
2023/07/30 12:54:16;;;;;;;0.93;0.70;;;;;;;;;;6218822;28;20315;-69
2023/07/30 12:57:17;;;;;;;0.77;0.65;;;;;;;;;;6217670;28;20049;-68
2023/07/30 13:00:17;;;;;;;0.70;0.70;;;;;;;;;;6205895;28;20092;-67
2023/07/30 13:03:18;;;;;;;0.60;0.60;;;;;;;;;;6205842;28;20105;-68
2023/07/30 13:06:18;;;;;;;1.40;1.30;;;;;;;;;;6205608;28;20829;-69
2023/07/30 13:09:18;;;;;;;1.40;1.30;;;;;;;;;;6205864;28;20486;-68
2023/07/30 13:12:18;;;;;;;1.30;1.20;;;;;;;;;;6201459;28;20021;-68
2023/07/30 13:15:19;;;;;;;0.77;0.77;;;;;;;;;;6203937;28;20362;-69
2023/07/30 13:18:19;;;;;;;1.17;1.10;;;;;;;;;;6200621;28;20490;-68
2023/07/30 13:21:19;;;;;;;1.10;1.10;;;;;;;;;;6197788;28;20100;-68
2023/07/30 13:24:19;;;;;;;0.80;0.80;;;;;;;;;;6199127;28;20034;-68
2023/07/30 13:27:19;;;;;;;0.87;0.87;;;;;;;;;;6199328;28;20030;-69
2023/07/30 13:30:20;;;;;;;0.70;0.70;;;;;;;;;;6202899;28;20028;-70
2023/07/30 13:33:20;;;;;;;0.60;0.60;;;;;;;;;;6205566;28;20029;-68
2023/07/30 13:36:20;;;;;;;0.87;0.87;;;;;;;;;;6198726;28;20056;-68
2023/07/30 13:39:20;;;;;;;0.80;0.80;;;;;;;;;;6199333;28;20030;-66
2023/07/30 13:42:21;;;;;;;0.70;0.70;;;;;;;;;;6200034;28;20022;-67
2023/07/30 13:45:21;;;;;;;0.63;0.63;;;;;;;;;;6205292;28;20466;-67
2023/07/30 13:48:21;;;;;;;0.90;0.90;;;;;;;;;;6201953;28;20339;-67
2023/07/30 13:51:21;;;;;;;0.70;0.70;;;;;;;;;;6191128;28;20112;-65
2023/07/30 13:54:22;;;;;;;0.80;0.80;;;;;;;;;;6175573;28;20034;-65
2023/07/30 13:57:23;;;;;;;1.60;0.70;;;;;;;;;;6176222;28;21673;-65
2023/07/30 14:00:24;;;;;;;0.70;0.60;;;;;;;;;;6186159;28;20034;-67
2023/07/30 14:03:24;;;;;;;0.60;0.60;;;;;;;;;;6207826;28;20301;-64
2023/07/30 14:06:24;;;;;;;0.70;0.70;;;;;;;;;;6216232;28;20018;-63
2023/07/30 14:09:27;;;;;;;0.63;0.63;;;;;;;;;;6217264;28;20026;-64
2023/07/30 14:12:27;;;;;;;2.45;2.20;;;;;;;;;;6217584;28;20045;-65
2023/07/30 14:15:27;;;;;;;2.20;1.90;;;;;;;;;;6216185;28;20112;-66
2023/07/30 14:18:27;;;;;;;1.20;1.10;;;;;;;;;;6216724;28;20148;-65
2023/07/30 14:21:28;;;;;;;1.30;1.13;;;;;;;;;;6208814;28;20475;-64
2023/07/30 14:24:28;;;;;;;1.00;0.77;;;;;;;;;;6214765;28;20132;-64
2023/07/30 14:27:28;;;;;;;0.88;0.70;;;;;;;;;;6198199;28;20080;-71
2023/07/30 14:30:29;;;;;;;0.80;0.80;;;;;;;;;;6209878;28;20064;-66
2023/07/30 14:33:29;;;;;;;0.63;0.63;;;;;;;;;;6207294;28;22017;-65
2023/07/30 14:36:29;;;;;;;0.65;0.60;;;;;;;;;;6205770;28;20040;-66
2023/07/30 14:39:29;;;;;;;1.77;1.67;;;;;;;;;;6204404;28;20081;-65
2023/07/30 14:42:29;;;;;;;2.47;1.93;;;;;;;;;;6197936;28;20295;-67
2023/07/30 14:45:30;;;;;;;1.40;1.30;;;;;;;;;;6209351;28;20030;-68
2023/07/30 14:48:30;;;;;;;1.13;0.87;;;;;;;;;;6201866;28;20311;-68
2023/07/30 14:51:30;;;;;;;1.77;0.90;;;;;;;;;;6209200;28;20274;-69
2023/07/30 14:54:30;;;;;;;0.70;0.60;;;;;;;;;;6210815;28;20281;-67
2023/07/30 14:57:32;;;;;;;8.33;4.57;;;;;;;;;;6218178;28;20076;-68
2023/07/30 15:00:33;;;;;;;5.30;2.75;;;;;;;;;;6230881;28;20632;-68
2023/07/30 15:03:33;;;;;;;2.00;1.60;;;;;;;;;;6231355;28;20021;-66
2023/07/30 15:06:33;;;;;;;2.63;2.10;;;;;;;;;;6223489;28;20261;-68
2023/07/30 15:09:34;;;;;;;2.58;2.33;;;;;;;;;;6224410;28;20103;-68
2023/07/30 15:12:35;;;;;;;3.00;2.75;;;;;;;;;;6221638;28;20025;-66
2023/07/30 15:15:35;;;;;;;2.77;2.23;;;;;;;;;;6217303;28;20013;-67
2023/07/30 15:18:35;;;;;;;2.80;2.17;;;;;;;;;;6220820;28;20793;-67
2023/07/30 15:21:37;;;;;;;2.10;1.90;;;;;;;;;;6210697;28;20358;-68
2023/07/30 15:24:37;;;;;;;2.40;1.80;;;;;;;;;;6224207;28;20280;-68
2023/07/30 15:27:38;;;;;;;2.20;1.57;;;;;;;;;;6208344;28;20026;-69
2023/07/30 15:30:38;;;;;;;6.95;1.80;;;;;;;;;;6227183;28;20021;-66
2023/07/30 15:33:38;;;;;;;1.60;1.08;;;;;;;;;;6221115;28;20026;-66
2023/07/30 15:36:38;;;;;;;1.40;1.03;;;;;;;;;;6208305;28;20055;-63
2023/07/30 15:39:39;;;;;;;1.37;0.87;;;;;;;;;;6208120;28;20273;-68
2023/07/30 15:42:39;;;;;;;1.13;0.80;;;;;;;;;;6216648;28;20018;-68
2023/07/30 15:45:45;;;;;;;2.10;0.70;;;;;;;;;;6219610;28;20037;-68
2023/07/30 15:48:46;;;;;;;0.93;0.60;;;;;;;;;;6218184;28;20264;-64
2023/07/30 15:51:46;;;;;;;;;;;;;;;;;;6216298;28;20493;-65
2023/07/30 15:54:47;;;;;;;0.20;0.10;;;;;;;;;;6210645;28;19910;-66
2023/07/30 15:57:47;;;;;;;0.17;0.17;;;;;;;;;;6215734;28;20328;-65
2023/07/30 16:00:47;;;;;;;;;;;;;;;;;;6209617;28;20380;-66
2023/07/30 16:03:47;;;;;;;0.05;0.05;;;;;;;;;;6217118;28;19996;-66
2023/07/30 16:06:47;;;;;;;;;;;;;;;;;;6217905;28;20343;-66
2023/07/30 16:09:48;;;;;;;0.10;0.10;;;;;;;;;;6210553;28;19962;-64
2023/07/30 16:12:48;;;;;;;;;;;;;;;;;;6208495;28;20037;-65
2023/07/30 16:15:48;;;;;;;0.00;0.00;;;;;;;;;;6202614;28;19921;-68
2023/07/30 16:18:48;;;;;;;0.10;0.10;;;;;;;;;;6199182;28;20134;-68
2023/07/30 16:21:51;;;;;;;0.10;0.10;;;;;;;;;;6203600;28;20021;-68
2023/07/30 16:24:51;;;;;;;0.20;0.20;;;;;;;;;;6197319;28;20034;-67
2023/07/30 16:27:51;;;;;;;0.10;0.10;;;;;;;;;;6205252;28;20084;-69
2023/07/30 16:30:52;;;;;;;0.10;0.10;;;;;;;;;;6196529;28;20288;-70
2023/07/30 16:33:52;;;;;;;0.00;0.00;;;;;;;;;;6202820;28;20292;-59
2023/07/30 16:36:52;;;;;;;0.00;0.00;;;;;;;;;;6199455;28;20272;-62
2023/07/30 16:39:53;;;;;;;0.00;0.00;;;;;;;;;;6205628;28;20021;-58
2023/07/30 16:42:53;;;;;;;0.10;0.10;;;;;;;;;;6200331;28;20280;-57
2023/07/30 16:45:54;;;;;;;0.00;0.00;;;;;;;;;;6203764;28;20021;-62
2023/07/30 16:48:54;;;;;;;0.05;0.00;;;;;;;;;;6197100;28;20284;-61
2023/07/30 16:51:54;;;;;;;0.00;0.00;;;;;;;;;;6203827;28;20018;-57
2023/07/30 16:54:54;;;;;;;0.00;0.00;;;;;;;;;;6198354;28;20388;-62
2023/07/30 16:57:55;;;;;;;0.00;0.00;;;;;;;;;;6208945;28;20276;-57
2023/07/30 17:01:00;;;;;;;0.00;0.00;;;;;;;;;;6188902;28;20018;-62
2023/07/30 17:04:00;;;;;;;0.00;0.00;;;;;;;;;;6201398;28;20034;-60
2023/07/30 17:07:00;;;;;;;0.00;0.00;;;;;;;;;;6196717;28;20083;-58
2023/07/30 17:10:00;;;;;;;0.00;0.00;;;;;;;;;;6206611;28;20733;-62
2023/07/30 17:13:00;;;;;;;0.00;0.00;;;;;;;;;;6197209;28;20287;-61
2023/07/30 17:16:07;;;;;;;0.00;0.00;;;;;;;;;;6201228;28;20296;-59
2023/07/30 17:19:08;;;;;;;0.00;0.00;;;;;;;;;;6219477;28;20011;-62
2023/07/30 17:22:09;;;;;;;0.00;0.00;;;;;;;;;;6223274;28;20025;-62
2023/07/30 17:25:09;;;;;;;0.00;0.00;;;;;;;;;;6210272;28;20283;-61
2023/07/30 17:28:09;;;;;;;0.00;0.00;;;;;;;;;;6209298;28;20041;-60
2023/07/30 17:31:10;;;;;;;0.00;0.00;;;;;;;;;;6213589;28;20036;-61
2023/07/30 17:34:10;;;;;;;0.00;0.00;;;;;;;;;;6205183;28;20033;-62
2023/07/30 17:37:10;;;;;;;0.00;0.00;;;;;;;;;;6211349;28;20022;-63
2023/07/30 17:40:11;;;;;;;0.00;0.00;;;;;;;;;;6190109;28;20209;-61
2023/07/30 17:43:11;;;;;;;0.00;0.00;;;;;;;;;;6216903;28;20351;-63
2023/07/30 17:46:11;;;;;;;0.00;0.00;;;;;;;;;;6225929;28;20041;-61
2023/07/30 17:49:11;;;;;;;0.00;0.00;;;;;;;;;;6223150;28;20135;-61
2023/07/30 17:52:12;;;;;;;0.00;0.00;;;;;;;;;;6225344;28;20283;-62
2023/07/30 17:55:12;;;;;;;0.00;0.00;;;;;;;;;;6225506;28;20072;-64
2023/07/30 17:58:12;;;;;;;0.00;0.00;;;;;;;;;;6227515;28;20672;-60
2023/07/30 18:01:12;;;;;;;0.00;0.00;;;;;;;;;;6235245;28;20054;-63
2023/07/30 18:04:13;;;;;;;0.00;0.00;;;;;;;;;;5875586;28;10000511;-62
2023/07/30 18:07:13;;;;;;;0.00;0.00;;;;;;;;;;6207758;28;20032;-63
2023/07/30 18:10:13;;;;;;;0.00;0.00;;;;;;;;;;6203373;28;20057;-62